createdAt,value
2022-08-30T00:00:01.669Z,25.60
2022-08-30T00:02:34.231Z,25.60
2022-08-30T00:05:02.753Z,25.60
2022-08-30T00:07:31.402Z,25.60
2022-08-30T00:09:59.692Z,25.60
2022-08-30T00:12:27.940Z,25.60
2022-08-30T00:14:56.956Z,25.60
2022-08-30T00:17:25.442Z,25.50
2022-08-30T00:19:53.996Z,25.40
2022-08-30T00:22:22.399Z,25.40
2022-08-30T00:24:50.667Z,25.30
2022-08-30T00:27:19.055Z,25.30
2022-08-30T00:29:47.625Z,25.20
2022-08-30T00:32:16.691Z,25.20
2022-08-30T00:34:44.746Z,25.30
2022-08-30T00:37:13.730Z,25.30
2022-08-30T00:39:42.285Z,25.30
2022-08-30T00:42:11.454Z,25.20
2022-08-30T00:44:41.038Z,25.30
2022-08-30T00:47:09.829Z,25.20
2022-08-30T00:49:40.534Z,25.20
2022-08-30T00:52:09.344Z,25.20
2022-08-30T00:54:39.885Z,25.20
2022-08-30T00:57:08.617Z,25.10
2022-08-30T00:59:37.272Z,25.00
2022-08-30T01:02:06.425Z,25.00
2022-08-30T01:04:36.010Z,25.00
2022-08-30T01:07:04.934Z,24.90
2022-08-30T01:09:33.029Z,24.90
2022-08-30T01:12:02.038Z,24.80
2022-08-30T01:14:31.965Z,24.80
2022-08-30T01:17:02.850Z,24.80
2022-08-30T01:19:33.716Z,24.80
2022-08-30T01:22:24.187Z,24.80
2022-08-30T01:24:56.420Z,24.90
2022-08-30T01:27:25.551Z,24.90
2022-08-30T01:29:55.831Z,24.90
2022-08-30T01:32:31.872Z,24.90
2022-08-30T01:35:00.273Z,24.80
2022-08-30T01:37:31.552Z,24.80
2022-08-30T01:40:00.326Z,24.90
2022-08-30T01:42:28.844Z,24.80
2022-08-30T01:44:56.990Z,24.80
2022-08-30T01:47:25.617Z,24.80
2022-08-30T01:49:53.846Z,24.70
2022-08-30T01:52:22.032Z,24.70
2022-08-30T01:54:50.726Z,24.70
2022-08-30T01:57:22.693Z,24.60
2022-08-30T01:59:51.062Z,24.50
2022-08-30T02:02:23.536Z,24.40
2022-08-30T02:04:52.578Z,24.40
2022-08-30T02:07:21.901Z,24.40
2022-08-30T02:09:50.330Z,24.30
2022-08-30T02:12:18.481Z,24.30
2022-08-30T02:14:46.884Z,24.30
2022-08-30T02:17:16.572Z,24.30
2022-08-30T02:19:44.734Z,24.30
2022-08-30T02:22:12.966Z,24.30
2022-08-30T02:24:41.735Z,24.20
2022-08-30T02:27:10.981Z,24.20
2022-08-30T02:29:39.521Z,24.10
2022-08-30T02:32:07.824Z,24.10
2022-08-30T02:34:38.556Z,24.10
2022-08-30T02:37:07.121Z,24.10
2022-08-30T02:39:34.994Z,24.10
2022-08-30T02:42:03.158Z,24.00
2022-08-30T02:44:31.215Z,24.00
2022-08-30T02:46:59.226Z,24.00
2022-08-30T02:49:33.509Z,24.00
2022-08-30T02:52:05.487Z,23.90
2022-08-30T02:54:33.799Z,23.80
2022-08-30T02:57:06.881Z,23.80
2022-08-30T02:59:38.231Z,23.70
2022-08-30T03:02:09.376Z,23.70
2022-08-30T03:04:39.467Z,23.70
2022-08-30T03:07:08.891Z,23.70
2022-08-30T03:09:37.423Z,23.60
2022-08-30T03:12:07.525Z,23.60
2022-08-30T03:14:38.864Z,23.50
2022-08-30T03:17:15.407Z,23.50
2022-08-30T03:19:45.601Z,23.50
2022-08-30T03:22:14.004Z,23.40
2022-08-30T03:24:42.491Z,23.30
2022-08-30T03:27:12.023Z,23.30
2022-08-30T03:29:40.251Z,23.20
2022-08-30T03:32:08.963Z,23.20
2022-08-30T03:34:37.254Z,23.20
2022-08-30T03:37:05.225Z,23.20
2022-08-30T03:39:33.347Z,23.20
2022-08-30T03:42:01.442Z,23.10
2022-08-30T03:44:31.302Z,23.10
2022-08-30T03:46:59.267Z,23.10
2022-08-30T03:49:28.096Z,23.10
2022-08-30T03:51:56.111Z,23.10
2022-08-30T03:54:24.880Z,23.00
2022-08-30T03:56:53.173Z,23.00
2022-08-30T03:59:21.332Z,23.00
2022-08-30T04:01:49.731Z,22.90
2022-08-30T04:04:20.905Z,22.90
2022-08-30T04:06:50.100Z,22.80
2022-08-30T04:09:19.218Z,22.80
2022-08-30T04:11:48.050Z,22.80
2022-08-30T04:14:19.355Z,22.80
2022-08-30T04:16:47.729Z,22.80
2022-08-30T04:19:15.906Z,22.70
2022-08-30T04:21:45.336Z,22.70
2022-08-30T04:24:13.639Z,22.70
2022-08-30T04:26:42.171Z,22.70
2022-08-30T04:29:12.910Z,22.70
2022-08-30T04:31:42.092Z,22.70
2022-08-30T04:34:14.701Z,22.80
2022-08-30T04:36:43.171Z,22.80
2022-08-30T04:39:18.367Z,22.80
2022-08-30T04:41:46.803Z,22.80
2022-08-30T04:44:19.532Z,22.80
2022-08-30T04:46:48.967Z,22.80
2022-08-30T04:49:17.253Z,22.80
2022-08-30T04:51:45.458Z,22.80
2022-08-30T04:54:13.657Z,22.90
2022-08-30T04:56:41.816Z,23.00
2022-08-30T04:59:10.001Z,23.00
2022-08-30T05:01:45.229Z,23.10
2022-08-30T05:04:15.987Z,23.10
2022-08-30T05:06:44.532Z,23.10
2022-08-30T05:09:18.617Z,23.20
2022-08-30T05:11:47.766Z,23.20
2022-08-30T05:14:15.977Z,23.30
2022-08-30T05:16:44.729Z,23.30
2022-08-30T05:19:12.782Z,23.40
2022-08-30T05:21:41.302Z,23.50
2022-08-30T05:24:09.728Z,23.50
2022-08-30T05:26:39.684Z,23.60
2022-08-30T05:29:09.272Z,23.70
2022-08-30T05:31:39.715Z,23.80
2022-08-30T05:34:08.168Z,23.90
2022-08-30T05:36:38.549Z,23.90
2022-08-30T05:39:10.941Z,24.00
2022-08-30T05:41:40.969Z,24.10
2022-08-30T05:44:11.101Z,24.20
2022-08-30T05:46:40.226Z,24.30
2022-08-30T05:49:09.200Z,24.30
2022-08-30T05:51:43.118Z,24.40
2022-08-30T05:54:13.977Z,24.50
2022-08-30T05:56:44.856Z,24.50
2022-08-30T05:59:14.755Z,24.60
2022-08-30T06:01:46.835Z,24.60
2022-08-30T06:04:15.461Z,24.70
2022-08-30T06:06:44.994Z,24.80
2022-08-30T06:09:14.812Z,24.80
2022-08-30T06:11:44.406Z,24.90
2022-08-30T06:14:13.872Z,25.00
2022-08-30T06:16:46.118Z,25.00
2022-08-30T06:19:16.254Z,25.20
2022-08-30T06:21:48.291Z,25.20
2022-08-30T06:24:17.313Z,25.20
2022-08-30T06:26:47.482Z,25.20
2022-08-30T06:29:21.181Z,25.20
2022-08-30T06:31:50.728Z,25.30
2022-08-30T06:34:19.249Z,25.40
2022-08-30T06:36:47.410Z,25.50
2022-08-30T06:39:15.896Z,25.70
2022-08-30T06:41:44.160Z,25.80
2022-08-30T06:44:25.646Z,25.90
2022-08-30T06:46:53.926Z,26.00
2022-08-30T06:49:22.155Z,26.10
2022-08-30T06:51:51.695Z,26.10
2022-08-30T06:54:19.545Z,26.20
2022-08-30T06:56:58.099Z,26.20
2022-08-30T06:59:28.486Z,26.30
2022-08-30T07:01:57.911Z,26.30
2022-08-30T07:04:26.753Z,26.40
2022-08-30T07:06:55.185Z,26.50
2022-08-30T07:09:23.546Z,26.40
2022-08-30T07:11:53.050Z,26.40
2022-08-30T07:14:22.261Z,26.50
2022-08-30T07:16:51.185Z,26.50
2022-08-30T07:19:21.554Z,26.60
2022-08-30T07:21:50.907Z,26.80
2022-08-30T07:24:20.509Z,26.90
2022-08-30T07:26:52.509Z,27.00
2022-08-30T07:29:21.758Z,27.00
2022-08-30T07:31:50.548Z,27.00
2022-08-30T07:34:20.626Z,27.00
2022-08-30T07:36:50.663Z,27.10
2022-08-30T07:39:19.052Z,27.20
2022-08-30T07:41:47.483Z,27.20
2022-08-30T07:44:15.625Z,27.30
2022-08-30T07:46:44.618Z,27.30
2022-08-30T07:49:13.699Z,27.40
2022-08-30T07:51:42.515Z,27.70
2022-08-30T07:54:11.179Z,27.80
2022-08-30T07:56:39.274Z,28.00
2022-08-30T07:59:07.617Z,28.10
2022-08-30T08:01:36.196Z,28.00
2022-08-30T08:04:04.752Z,28.00
2022-08-30T08:06:34.956Z,28.10
2022-08-30T08:09:04.379Z,28.20
2022-08-30T08:11:34.130Z,28.10
2022-08-30T08:14:04.036Z,28.20
2022-08-30T08:16:34.264Z,28.20
2022-08-30T08:19:02.682Z,28.20
2022-08-30T08:21:31.056Z,28.40
2022-08-30T08:24:02.441Z,28.50
2022-08-30T08:26:30.715Z,28.50
2022-08-30T08:28:59.081Z,28.40
2022-08-30T08:31:33.469Z,28.30
2022-08-30T08:34:06.488Z,28.50
2022-08-30T08:36:36.463Z,28.70
2022-08-30T08:39:07.853Z,28.70
2022-08-30T08:41:39.116Z,28.60
2022-08-30T08:44:32.439Z,28.50
2022-08-30T08:47:25.711Z,28.80
2022-08-30T08:49:59.287Z,28.80
2022-08-30T08:52:55.094Z,28.90
2022-08-30T08:55:24.682Z,29.20
2022-08-30T08:57:52.890Z,29.40
2022-08-30T09:00:21.101Z,29.40
2022-08-30T09:03:00.406Z,29.20
2022-08-30T09:05:36.348Z,29.50
2022-08-30T09:08:12.256Z,29.60
2022-08-30T09:10:51.042Z,29.60
2022-08-30T09:13:22.866Z,29.90
2022-08-30T09:15:55.015Z,30.20
2022-08-30T09:18:42.259Z,30.50
2022-08-30T09:21:22.147Z,30.80
2022-08-30T09:23:57.225Z,30.80
2022-08-30T09:26:32.184Z,30.60
2022-08-30T09:29:01.340Z,30.70
2022-08-30T09:31:46.752Z,30.70
2022-08-30T09:34:24.349Z,30.80
2022-08-30T09:36:56.693Z,30.80
2022-08-30T09:39:34.871Z,31.10
2022-08-30T09:42:35.140Z,31.20
2022-08-30T09:45:12.662Z,31.20
2022-08-30T09:47:43.626Z,30.80
2022-08-30T09:50:20.348Z,31.20
2022-08-30T09:53:23.502Z,31.60
2022-08-30T09:55:52.790Z,32.00
2022-08-30T09:58:34.459Z,32.10
2022-08-30T10:01:37.202Z,32.50
2022-08-30T10:04:36.656Z,32.80
2022-08-30T10:07:20.479Z,32.50
2022-08-30T10:10:01.856Z,32.70
2022-08-30T10:12:49.013Z,33.40
2022-08-30T10:15:38.970Z,33.20
2022-08-30T10:18:16.552Z,33.30
2022-08-30T10:21:19.418Z,33.60
2022-08-30T10:23:52.771Z,33.70
2022-08-30T10:26:44.501Z,34.00
2022-08-30T10:29:16.293Z,34.40
2022-08-30T10:31:50.751Z,34.90
2022-08-30T10:35:04.075Z,35.20
2022-08-30T10:37:37.366Z,35.30
2022-08-30T10:40:49.256Z,35.40
2022-08-30T10:43:45.053Z,35.00
2022-08-30T10:46:35.888Z,35.30
2022-08-30T10:49:09.746Z,35.60
2022-08-30T10:51:47.037Z,35.70
2022-08-30T10:54:37.817Z,35.20
2022-08-30T10:57:06.093Z,35.90
2022-08-30T10:59:38.990Z,36.70
2022-08-30T11:02:23.959Z,36.80
2022-08-30T11:05:47.607Z,36.60
2022-08-30T11:08:36.462Z,36.90
2022-08-30T11:11:15.435Z,38.00
2022-08-30T11:13:45.869Z,37.90
2022-08-30T11:16:20.611Z,37.90
2022-08-30T11:18:56.830Z,38.20
2022-08-30T11:21:36.885Z,37.40
2022-08-30T11:24:13.180Z,37.20
2022-08-30T11:26:49.025Z,37.50
2022-08-30T11:29:31.773Z,38.40
2022-08-30T11:32:01.706Z,39.10
2022-08-30T11:34:46.475Z,39.60
2022-08-30T11:37:36.941Z,38.80
2022-08-30T11:40:15.711Z,39.30
2022-08-30T11:42:50.751Z,39.80
2022-08-30T11:45:26.800Z,40.00
2022-08-30T11:47:59.463Z,40.40
2022-08-30T11:50:54.082Z,40.50
2022-08-30T11:53:40.278Z,40.90
2022-08-30T11:56:14.781Z,41.60
2022-08-30T11:58:56.070Z,41.50
2022-08-30T12:01:50.888Z,41.30
2022-08-30T12:04:18.239Z,41.30
2022-08-30T12:06:50.766Z,41.60
2022-08-30T12:09:24.852Z,41.70
2022-08-30T12:12:02.704Z,41.80
2022-08-30T12:14:53.103Z,41.90
2022-08-30T12:17:45.051Z,41.90
2022-08-30T12:20:26.942Z,41.00
2022-08-30T12:22:55.875Z,41.00
2022-08-30T12:25:35.103Z,41.00
2022-08-30T12:28:14.511Z,41.50
2022-08-30T12:30:46.490Z,41.80
2022-08-30T12:33:28.961Z,41.80
2022-08-30T12:35:59.850Z,42.00
2022-08-30T12:38:30.331Z,41.50
2022-08-30T12:41:05.726Z,41.60
2022-08-30T12:43:50.784Z,41.30
2022-08-30T12:46:21.119Z,41.30
2022-08-30T12:48:49.927Z,41.00
2022-08-30T12:51:38.006Z,40.20
2022-08-30T12:54:14.149Z,40.00
2022-08-30T12:57:25.526Z,39.70
2022-08-30T12:59:59.482Z,39.60
2022-08-30T13:02:53.905Z,40.30
2022-08-30T13:05:45.653Z,40.90
2022-08-30T13:08:22.445Z,40.80
2022-08-30T13:11:08.055Z,41.10
2022-08-30T13:13:43.587Z,41.40
2022-08-30T13:16:18.943Z,41.50
2022-08-30T13:18:53.359Z,40.90
2022-08-30T13:21:31.175Z,40.90
2022-08-30T13:24:08.193Z,40.30
2022-08-30T13:26:38.180Z,40.40
2022-08-30T13:29:15.155Z,40.50
2022-08-30T13:31:43.912Z,40.00
2022-08-30T13:34:12.384Z,40.10
2022-08-30T13:36:56.052Z,40.20
2022-08-30T13:39:24.765Z,40.00
2022-08-30T13:41:53.397Z,39.80
2022-08-30T13:44:22.453Z,39.80
2022-08-30T13:46:55.411Z,39.20
2022-08-30T13:49:44.309Z,38.80
2022-08-30T13:52:26.378Z,38.70
2022-08-30T13:54:57.399Z,38.20
2022-08-30T13:58:01.097Z,37.90
2022-08-30T14:00:22.440Z,37.50
2022-08-30T14:02:57.507Z,37.20
2022-08-30T14:06:04.949Z,37.10
2022-08-30T14:08:46.413Z,36.60
2022-08-30T14:11:20.875Z,36.00
2022-08-30T14:16:43.210Z,35.10
2022-08-30T14:19:13.407Z,34.70
2022-08-30T14:21:42.467Z,34.40
2022-08-30T14:24:13.549Z,34.20
2022-08-30T14:26:51.693Z,34.00
2022-08-30T14:29:23.600Z,34.00
2022-08-30T14:31:53.678Z,34.10
2022-08-30T14:34:23.580Z,34.00
2022-08-30T14:36:51.667Z,34.10
2022-08-30T14:39:21.162Z,34.20
2022-08-30T14:41:53.241Z,33.90
2022-08-30T14:44:22.891Z,33.80
2022-08-30T14:46:51.990Z,33.70
2022-08-30T14:49:21.845Z,33.70
2022-08-30T14:51:52.345Z,33.80
2022-08-30T14:54:25.696Z,33.70
2022-08-30T14:56:54.963Z,33.50
2022-08-30T14:59:24.215Z,33.20
2022-08-30T15:01:52.846Z,33.20
2022-08-30T15:04:21.685Z,33.10
2022-08-30T15:06:50.112Z,33.20
2022-08-30T15:09:23.494Z,33.20
2022-08-30T15:11:53.378Z,33.10
2022-08-30T15:14:24.106Z,32.90
2022-08-30T15:16:55.344Z,32.80
2022-08-30T15:19:23.311Z,32.60
2022-08-30T15:21:51.802Z,32.50
2022-08-30T15:24:27.666Z,32.20
2022-08-30T15:27:00.909Z,32.00
2022-08-30T15:29:31.591Z,31.90
2022-08-30T15:32:01.342Z,31.70
2022-08-30T15:34:30.526Z,31.60
2022-08-30T15:36:59.477Z,31.50
2022-08-30T15:39:28.199Z,31.50
2022-08-30T15:42:01.034Z,31.40
2022-08-30T15:44:34.479Z,31.30
2022-08-30T15:47:03.714Z,31.10
2022-08-30T15:49:31.664Z,31.00
2022-08-30T15:52:04.986Z,31.10
2022-08-30T15:54:33.814Z,31.20
2022-08-30T15:57:01.944Z,31.30
2022-08-30T15:59:33.920Z,31.20
2022-08-30T16:02:02.028Z,31.20
2022-08-30T16:04:30.345Z,31.30
2022-08-30T16:06:58.572Z,31.20
2022-08-30T16:09:29.965Z,31.20
2022-08-30T16:12:02.663Z,31.20
2022-08-30T16:14:33.210Z,31.30
2022-08-30T16:17:01.390Z,31.10
2022-08-30T16:19:29.651Z,31.00
2022-08-30T16:21:57.600Z,30.80
2022-08-30T16:24:27.997Z,30.40
2022-08-30T16:26:56.242Z,30.00
2022-08-30T16:29:24.569Z,29.70
2022-08-30T16:31:58.783Z,29.50
2022-08-30T16:34:27.405Z,29.40
2022-08-30T16:36:55.554Z,29.30
2022-08-30T16:39:23.840Z,29.20
2022-08-30T16:41:54.626Z,29.00
2022-08-30T16:44:23.576Z,28.90
2022-08-30T16:46:58.951Z,28.80
2022-08-30T16:49:28.514Z,28.60
2022-08-30T16:51:57.658Z,28.50
2022-08-30T16:54:26.261Z,28.50
2022-08-30T16:56:56.215Z,28.50
2022-08-30T16:59:25.036Z,28.40
2022-08-30T17:01:53.273Z,28.40
2022-08-30T17:04:22.755Z,28.40
2022-08-30T17:06:51.768Z,28.30
2022-08-30T17:09:20.922Z,28.30
2022-08-30T17:11:50.850Z,28.30
2022-08-30T17:14:27.942Z,28.20
2022-08-30T17:17:02.516Z,28.20
2022-08-30T17:19:31.168Z,28.10
2022-08-30T17:21:59.688Z,28.10
2022-08-30T17:24:28.307Z,27.90
2022-08-30T17:26:56.466Z,27.80
2022-08-30T17:29:27.553Z,27.70
2022-08-30T17:31:56.976Z,27.70
2022-08-30T17:34:28.744Z,27.70
2022-08-30T17:36:59.491Z,27.70
2022-08-30T17:39:28.175Z,27.60
2022-08-30T17:41:56.823Z,27.60
2022-08-30T17:44:30.114Z,27.60
2022-08-30T17:47:01.946Z,27.60
2022-08-30T17:49:31.437Z,27.50
2022-08-30T17:52:02.485Z,27.50
2022-08-30T17:54:33.670Z,27.50
2022-08-30T17:57:02.239Z,27.40
2022-08-30T17:59:31.717Z,27.40
2022-08-30T18:02:02.517Z,27.40
2022-08-30T18:04:33.859Z,27.30
2022-08-30T18:07:02.326Z,27.30
2022-08-30T18:09:33.845Z,27.30
2022-08-30T18:12:02.778Z,27.30
2022-08-30T18:14:31.139Z,27.30
2022-08-30T18:16:59.961Z,27.20
2022-08-30T18:19:31.024Z,27.20
2022-08-30T18:21:59.792Z,27.20
2022-08-30T18:24:32.361Z,27.20
2022-08-30T18:27:05.243Z,27.20
2022-08-30T18:29:33.729Z,27.20
2022-08-30T18:32:02.685Z,27.20
2022-08-30T18:34:31.801Z,27.10
2022-08-30T18:37:01.713Z,27.10
2022-08-30T18:39:34.077Z,27.00
2022-08-30T18:42:04.858Z,26.90
2022-08-30T18:44:36.762Z,26.90
2022-08-30T18:47:05.885Z,26.90
2022-08-30T18:49:38.585Z,26.80
2022-08-30T18:52:10.291Z,26.70
2022-08-30T18:54:41.736Z,26.70
2022-08-30T18:57:10.809Z,26.70
2022-08-30T18:59:41.911Z,26.70
2022-08-30T19:02:14.275Z,26.70
2022-08-30T19:04:45.118Z,26.70
2022-08-30T19:07:15.632Z,26.70
2022-08-30T19:09:45.153Z,26.60
2022-08-30T19:12:13.609Z,26.60
2022-08-30T19:14:42.284Z,26.60
2022-08-30T19:17:13.720Z,26.60
2022-08-30T19:19:48.812Z,26.60
2022-08-30T19:22:26.632Z,26.60
2022-08-30T19:24:57.161Z,26.60
2022-08-30T19:27:37.392Z,26.50
2022-08-30T19:30:23.159Z,26.50
2022-08-30T19:32:54.959Z,26.60
2022-08-30T19:35:23.611Z,26.50
2022-08-30T19:37:56.678Z,26.50
2022-08-30T19:40:25.548Z,26.50
2022-08-30T19:42:53.808Z,26.50
2022-08-30T19:45:23.206Z,26.40
2022-08-30T19:47:53.808Z,26.40
2022-08-30T19:50:23.352Z,26.40
2022-08-30T19:52:54.450Z,26.40
2022-08-30T19:55:28.727Z,26.30
2022-08-30T19:57:59.062Z,26.30
2022-08-30T20:00:30.637Z,26.30
2022-08-30T20:05:49.594Z,26.30
2022-08-30T20:08:21.017Z,26.20
2022-08-30T20:10:50.044Z,26.20
2022-08-30T20:13:23.596Z,26.20
2022-08-30T20:16:00.157Z,26.20
2022-08-30T20:18:29.388Z,26.10
2022-08-30T20:20:57.863Z,26.10
2022-08-30T20:23:26.456Z,26.10
2022-08-30T20:25:55.996Z,26.10
2022-08-30T20:28:27.286Z,26.10
2022-08-30T20:30:58.070Z,26.10
2022-08-30T20:33:26.371Z,26.10
2022-08-30T20:35:54.848Z,26.10
2022-08-30T20:38:24.398Z,26.00
2022-08-30T20:40:56.955Z,26.00
2022-08-30T20:43:27.311Z,26.00
2022-08-30T20:45:56.333Z,26.00
2022-08-30T20:48:26.100Z,25.90
2022-08-30T20:50:54.851Z,25.90
2022-08-30T20:53:22.965Z,25.90
2022-08-30T20:55:51.071Z,25.90
2022-08-30T20:58:19.451Z,25.80
2022-08-30T21:00:53.117Z,25.80
2022-08-30T21:03:26.516Z,25.80
2022-08-30T21:05:57.087Z,25.70
2022-08-30T21:08:25.841Z,25.70
2022-08-30T21:10:54.940Z,25.70
2022-08-30T21:13:23.217Z,25.70
2022-08-30T21:16:00.401Z,25.70
2022-08-30T21:18:34.518Z,25.60
2022-08-30T21:21:14.207Z,25.60
2022-08-30T21:23:43.476Z,25.60
2022-08-30T21:26:12.762Z,25.50
2022-08-30T21:28:41.232Z,25.50
2022-08-30T21:31:13.236Z,25.50
2022-08-30T21:33:42.309Z,25.50
2022-08-30T21:36:29.647Z,25.40
2022-08-30T21:39:01.095Z,25.40
2022-08-30T21:41:30.627Z,25.40
2022-08-30T21:44:00.801Z,25.30
2022-08-30T21:46:31.184Z,25.30
2022-08-30T21:49:01.930Z,25.30
2022-08-30T21:51:34.313Z,25.30
2022-08-30T21:54:04.559Z,25.20
2022-08-30T21:56:32.515Z,25.20
2022-08-30T21:59:00.918Z,25.20
2022-08-30T22:01:31.071Z,25.40
2022-08-30T22:04:01.505Z,26.00
2022-08-30T22:06:31.518Z,26.70
2022-08-30T22:09:03.135Z,27.40
2022-08-30T22:11:33.315Z,28.20
2022-08-30T22:14:03.112Z,28.90
2022-08-30T22:16:31.641Z,29.50
2022-08-30T22:18:59.997Z,30.00
2022-08-30T22:21:31.186Z,30.20
2022-08-30T22:24:00.142Z,30.40
2022-08-30T22:26:28.518Z,30.70
2022-08-30T22:28:56.986Z,31.00
2022-08-30T22:31:25.742Z,30.40
2022-08-30T22:33:55.544Z,30.10
2022-08-30T22:36:32.616Z,30.30
2022-08-30T22:39:03.814Z,30.30
2022-08-30T22:41:34.393Z,29.60
2022-08-30T22:44:03.533Z,29.80
2022-08-30T22:46:33.865Z,29.90
2022-08-30T22:49:05.303Z,29.30
2022-08-30T22:51:33.981Z,29.50
2022-08-30T22:54:02.704Z,29.90
2022-08-30T22:56:31.247Z,29.60
2022-08-30T22:58:59.196Z,29.70
2022-08-30T23:01:37.509Z,30.00
2022-08-30T23:04:09.632Z,29.80
2022-08-30T23:06:37.918Z,29.60
2022-08-30T23:09:07.849Z,30.00
2022-08-30T23:11:37.697Z,30.00
2022-08-30T23:14:06.968Z,29.70
2022-08-30T23:16:35.791Z,30.00
2022-08-30T23:19:05.166Z,30.10
2022-08-30T23:21:33.541Z,29.60
2022-08-30T23:24:19.884Z,29.80
2022-08-30T23:27:06.581Z,30.20
2022-08-30T23:29:54.627Z,29.60
2022-08-30T23:32:41.736Z,29.90
2022-08-30T23:35:31.654Z,30.00
2022-08-30T23:38:20.776Z,29.30
2022-08-30T23:41:07.296Z,29.70
2022-08-30T23:43:54.261Z,30.10
2022-08-30T23:46:40.930Z,30.50
2022-08-30T23:49:27.742Z,30.80
2022-08-30T23:52:14.493Z,31.00
2022-08-30T23:55:00.677Z,31.10
2022-08-30T23:57:47.692Z,31.30
